sensor_id;sensor_type;location;lat;lon;timestamp;P1;durP1;ratioP1;P2;durP2;ratioP2
11970;SDS011;6045;42.682;23.294;2023-04-24T00:01:21;6.27;;;3.87;;
11970;SDS011;6045;42.682;23.294;2023-04-24T00:03:49;7.57;;;4.10;;
11970;SDS011;6045;42.682;23.294;2023-04-24T00:06:16;4.63;;;3.33;;
11970;SDS011;6045;42.682;23.294;2023-04-24T00:08:43;6.93;;;3.73;;
11970;SDS011;6045;42.682;23.294;2023-04-24T00:11:09;6.37;;;4.13;;
11970;SDS011;6045;42.682;23.294;2023-04-24T00:13:37;5.30;;;3.90;;
11970;SDS011;6045;42.682;23.294;2023-04-24T00:16:04;5.57;;;3.60;;
11970;SDS011;6045;42.682;23.294;2023-04-24T00:18:31;8.40;;;3.83;;
11970;SDS011;6045;42.682;23.294;2023-04-24T00:20:59;9.27;;;3.90;;
11970;SDS011;6045;42.682;23.294;2023-04-24T00:23:26;6.50;;;3.70;;
11970;SDS011;6045;42.682;23.294;2023-04-24T00:25:52;6.70;;;4.27;;
11970;SDS011;6045;42.682;23.294;2023-04-24T00:28:19;8.20;;;4.03;;
11970;SDS011;6045;42.682;23.294;2023-04-24T00:30:46;4.97;;;3.40;;
11970;SDS011;6045;42.682;23.294;2023-04-24T00:33:13;4.10;;;3.57;;
11970;SDS011;6045;42.682;23.294;2023-04-24T00:35:40;5.93;;;4.17;;
11970;SDS011;6045;42.682;23.294;2023-04-24T00:38:08;3.77;;;3.47;;
11970;SDS011;6045;42.682;23.294;2023-04-24T00:40:35;5.07;;;4.17;;
11970;SDS011;6045;42.682;23.294;2023-04-24T00:43:02;5.83;;;3.50;;
11970;SDS011;6045;42.682;23.294;2023-04-24T00:45:28;6.70;;;4.47;;
11970;SDS011;6045;42.682;23.294;2023-04-24T00:47:56;5.93;;;3.90;;
11970;SDS011;6045;42.682;23.294;2023-04-24T00:50:23;4.53;;;4.00;;
11970;SDS011;6045;42.682;23.294;2023-04-24T00:52:51;4.40;;;3.90;;
11970;SDS011;6045;42.682;23.294;2023-04-24T00:55:19;5.33;;;4.00;;
11970;SDS011;6045;42.682;23.294;2023-04-24T00:57:47;4.00;;;3.50;;
11970;SDS011;6045;42.682;23.294;2023-04-24T01:00:14;5.20;;;3.47;;
11970;SDS011;6045;42.682;23.294;2023-04-24T01:02:42;6.37;;;3.20;;
11970;SDS011;6045;42.682;23.294;2023-04-24T01:05:10;4.07;;;3.47;;
11970;SDS011;6045;42.682;23.294;2023-04-24T01:07:38;4.03;;;3.30;;
11970;SDS011;6045;42.682;23.294;2023-04-24T01:10:09;4.17;;;3.53;;
11970;SDS011;6045;42.682;23.294;2023-04-24T01:12:38;5.30;;;3.67;;
11970;SDS011;6045;42.682;23.294;2023-04-24T01:15:05;4.83;;;3.53;;
11970;SDS011;6045;42.682;23.294;2023-04-24T01:17:33;3.77;;;3.33;;
11970;SDS011;6045;42.682;23.294;2023-04-24T01:20:00;4.57;;;3.23;;
11970;SDS011;6045;42.682;23.294;2023-04-24T01:22:32;5.17;;;3.43;;
11970;SDS011;6045;42.682;23.294;2023-04-24T01:24:59;3.67;;;3.37;;
11970;SDS011;6045;42.682;23.294;2023-04-24T01:27:26;3.67;;;3.20;;
11970;SDS011;6045;42.682;23.294;2023-04-24T01:29:53;3.43;;;2.70;;
11970;SDS011;6045;42.682;23.294;2023-04-24T01:32:20;4.30;;;2.80;;
11970;SDS011;6045;42.682;23.294;2023-04-24T01:34:48;3.60;;;3.10;;
11970;SDS011;6045;42.682;23.294;2023-04-24T01:37:15;4.10;;;2.63;;
11970;SDS011;6045;42.682;23.294;2023-04-24T01:39:43;3.67;;;3.03;;
11970;SDS011;6045;42.682;23.294;2023-04-24T01:42:10;3.27;;;2.73;;
11970;SDS011;6045;42.682;23.294;2023-04-24T01:44:39;5.37;;;2.73;;
11970;SDS011;6045;42.682;23.294;2023-04-24T01:47:07;3.37;;;3.00;;
11970;SDS011;6045;42.682;23.294;2023-04-24T01:49:34;3.10;;;2.17;;
11970;SDS011;6045;42.682;23.294;2023-04-24T01:52:01;2.87;;;2.30;;
11970;SDS011;6045;42.682;23.294;2023-04-24T01:54:27;3.77;;;2.70;;
11970;SDS011;6045;42.682;23.294;2023-04-24T01:56:55;2.80;;;2.30;;
11970;SDS011;6045;42.682;23.294;2023-04-24T01:59:22;3.63;;;2.77;;
11970;SDS011;6045;42.682;23.294;2023-04-24T02:01:51;2.70;;;2.20;;
11970;SDS011;6045;42.682;23.294;2023-04-24T02:04:18;2.97;;;2.33;;
11970;SDS011;6045;42.682;23.294;2023-04-24T02:06:44;8.77;;;3.10;;
11970;SDS011;6045;42.682;23.294;2023-04-24T02:09:11;2.53;;;2.30;;
11970;SDS011;6045;42.682;23.294;2023-04-24T02:11:38;2.77;;;2.23;;
11970;SDS011;6045;42.682;23.294;2023-04-24T02:14:06;4.43;;;2.87;;
11970;SDS011;6045;42.682;23.294;2023-04-24T02:16:33;4.47;;;2.90;;
11970;SDS011;6045;42.682;23.294;2023-04-24T02:19:00;2.90;;;2.30;;
11970;SDS011;6045;42.682;23.294;2023-04-24T02:21:27;4.07;;;2.63;;
11970;SDS011;6045;42.682;23.294;2023-04-24T02:23:55;4.90;;;2.77;;
11970;SDS011;6045;42.682;23.294;2023-04-24T02:26:22;4.70;;;2.83;;
11970;SDS011;6045;42.682;23.294;2023-04-24T02:28:49;3.13;;;2.50;;
11970;SDS011;6045;42.682;23.294;2023-04-24T02:31:18;4.07;;;3.07;;
11970;SDS011;6045;42.682;23.294;2023-04-24T02:33:44;4.97;;;3.30;;
11970;SDS011;6045;42.682;23.294;2023-04-24T02:36:11;7.27;;;2.90;;
11970;SDS011;6045;42.682;23.294;2023-04-24T02:38:38;2.77;;;2.17;;
11970;SDS011;6045;42.682;23.294;2023-04-24T02:41:05;5.10;;;3.27;;
11970;SDS011;6045;42.682;23.294;2023-04-24T02:43:32;4.33;;;3.33;;
11970;SDS011;6045;42.682;23.294;2023-04-24T02:45:59;4.40;;;3.00;;
11970;SDS011;6045;42.682;23.294;2023-04-24T02:48:27;2.60;;;2.40;;
11970;SDS011;6045;42.682;23.294;2023-04-24T02:50:54;7.20;;;3.50;;
11970;SDS011;6045;42.682;23.294;2023-04-24T02:53:21;6.77;;;3.93;;
11970;SDS011;6045;42.682;23.294;2023-04-24T02:55:48;4.70;;;2.70;;
11970;SDS011;6045;42.682;23.294;2023-04-24T02:58:15;4.40;;;3.20;;
11970;SDS011;6045;42.682;23.294;2023-04-24T03:00:42;4.70;;;3.33;;
11970;SDS011;6045;42.682;23.294;2023-04-24T03:03:09;4.27;;;2.97;;
11970;SDS011;6045;42.682;23.294;2023-04-24T03:05:37;4.37;;;3.10;;
11970;SDS011;6045;42.682;23.294;2023-04-24T03:08:04;3.53;;;2.77;;
11970;SDS011;6045;42.682;23.294;2023-04-24T03:10:31;5.23;;;2.80;;
11970;SDS011;6045;42.682;23.294;2023-04-24T03:12:58;3.80;;;2.93;;
11970;SDS011;6045;42.682;23.294;2023-04-24T03:15:25;6.00;;;3.40;;
11970;SDS011;6045;42.682;23.294;2023-04-24T03:17:52;5.03;;;4.03;;
11970;SDS011;6045;42.682;23.294;2023-04-24T03:20:19;3.20;;;2.60;;
11970;SDS011;6045;42.682;23.294;2023-04-24T03:22:47;4.10;;;3.67;;
11970;SDS011;6045;42.682;23.294;2023-04-24T03:25:14;7.40;;;3.77;;
11970;SDS011;6045;42.682;23.294;2023-04-24T03:27:41;4.90;;;3.90;;
11970;SDS011;6045;42.682;23.294;2023-04-24T03:30:08;6.63;;;3.97;;
11970;SDS011;6045;42.682;23.294;2023-04-24T03:32:35;5.33;;;3.73;;
11970;SDS011;6045;42.682;23.294;2023-04-24T03:35:04;8.30;;;4.00;;
11970;SDS011;6045;42.682;23.294;2023-04-24T03:37:32;6.57;;;4.00;;
11970;SDS011;6045;42.682;23.294;2023-04-24T03:40:00;9.70;;;4.47;;
11970;SDS011;6045;42.682;23.294;2023-04-24T03:42:27;7.37;;;4.53;;
11970;SDS011;6045;42.682;23.294;2023-04-24T03:44:54;6.13;;;3.67;;
11970;SDS011;6045;42.682;23.294;2023-04-24T03:47:20;6.47;;;3.70;;
11970;SDS011;6045;42.682;23.294;2023-04-24T03:49:47;7.20;;;4.77;;
11970;SDS011;6045;42.682;23.294;2023-04-24T03:52:14;8.90;;;4.13;;
11970;SDS011;6045;42.682;23.294;2023-04-24T03:54:40;6.67;;;3.50;;
11970;SDS011;6045;42.682;23.294;2023-04-24T03:57:09;6.60;;;4.87;;
11970;SDS011;6045;42.682;23.294;2023-04-24T03:59:35;7.63;;;4.27;;
11970;SDS011;6045;42.682;23.294;2023-04-24T04:02:02;4.97;;;3.90;;
11970;SDS011;6045;42.682;23.294;2023-04-24T04:04:29;5.47;;;4.10;;
11970;SDS011;6045;42.682;23.294;2023-04-24T04:06:55;5.70;;;4.00;;
11970;SDS011;6045;42.682;23.294;2023-04-24T04:09:26;5.27;;;3.67;;
11970;SDS011;6045;42.682;23.294;2023-04-24T04:11:52;6.30;;;4.30;;
11970;SDS011;6045;42.682;23.294;2023-04-24T04:14:21;5.23;;;4.17;;
11970;SDS011;6045;42.682;23.294;2023-04-24T04:16:48;5.53;;;4.47;;
11970;SDS011;6045;42.682;23.294;2023-04-24T04:19:15;9.30;;;4.50;;
11970;SDS011;6045;42.682;23.294;2023-04-24T04:21:41;5.07;;;4.10;;
11970;SDS011;6045;42.682;23.294;2023-04-24T04:24:10;5.50;;;3.70;;
11970;SDS011;6045;42.682;23.294;2023-04-24T04:26:37;4.97;;;3.50;;
11970;SDS011;6045;42.682;23.294;2023-04-24T04:29:05;8.27;;;4.47;;
11970;SDS011;6045;42.682;23.294;2023-04-24T04:31:33;6.13;;;3.83;;
11970;SDS011;6045;42.682;23.294;2023-04-24T04:34:00;8.47;;;4.13;;
11970;SDS011;6045;42.682;23.294;2023-04-24T04:36:27;5.93;;;3.77;;
11970;SDS011;6045;42.682;23.294;2023-04-24T04:38:54;6.83;;;3.93;;
11970;SDS011;6045;42.682;23.294;2023-04-24T04:41:21;5.43;;;3.90;;
11970;SDS011;6045;42.682;23.294;2023-04-24T04:43:48;4.27;;;3.57;;
11970;SDS011;6045;42.682;23.294;2023-04-24T04:46:15;4.83;;;3.53;;
11970;SDS011;6045;42.682;23.294;2023-04-24T04:48:44;3.93;;;3.10;;
11970;SDS011;6045;42.682;23.294;2023-04-24T04:51:10;3.90;;;2.50;;
11970;SDS011;6045;42.682;23.294;2023-04-24T04:53:37;2.43;;;2.23;;
11970;SDS011;6045;42.682;23.294;2023-04-24T04:56:04;3.23;;;2.57;;
11970;SDS011;6045;42.682;23.294;2023-04-24T04:58:31;2.90;;;2.30;;
11970;SDS011;6045;42.682;23.294;2023-04-24T05:00:58;4.33;;;2.73;;
11970;SDS011;6045;42.682;23.294;2023-04-24T05:03:25;3.03;;;2.10;;
11970;SDS011;6045;42.682;23.294;2023-04-24T05:05:53;6.90;;;2.90;;
11970;SDS011;6045;42.682;23.294;2023-04-24T05:08:19;6.40;;;2.83;;
11970;SDS011;6045;42.682;23.294;2023-04-24T05:10:46;2.70;;;2.50;;
11970;SDS011;6045;42.682;23.294;2023-04-24T05:13:13;2.53;;;2.10;;
11970;SDS011;6045;42.682;23.294;2023-04-24T05:15:40;3.17;;;2.87;;
11970;SDS011;6045;42.682;23.294;2023-04-24T05:18:06;2.50;;;2.30;;
11970;SDS011;6045;42.682;23.294;2023-04-24T05:20:33;3.10;;;2.70;;
11970;SDS011;6045;42.682;23.294;2023-04-24T05:23:01;4.10;;;2.60;;
11970;SDS011;6045;42.682;23.294;2023-04-24T05:25:28;3.97;;;2.73;;
11970;SDS011;6045;42.682;23.294;2023-04-24T05:27:57;5.43;;;2.97;;
11970;SDS011;6045;42.682;23.294;2023-04-24T05:30:24;4.03;;;2.70;;
11970;SDS011;6045;42.682;23.294;2023-04-24T05:33:06;3.30;;;2.90;;
11970;SDS011;6045;42.682;23.294;2023-04-24T05:35:33;3.43;;;2.77;;
11970;SDS011;6045;42.682;23.294;2023-04-24T05:38:01;4.40;;;2.63;;
11970;SDS011;6045;42.682;23.294;2023-04-24T05:40:28;4.00;;;2.93;;
11970;SDS011;6045;42.682;23.294;2023-04-24T05:42:55;3.80;;;3.00;;
11970;SDS011;6045;42.682;23.294;2023-04-24T05:45:21;3.60;;;3.00;;
11970;SDS011;6045;42.682;23.294;2023-04-24T05:47:48;2.50;;;2.27;;
11970;SDS011;6045;42.682;23.294;2023-04-24T05:50:17;5.23;;;3.73;;
11970;SDS011;6045;42.682;23.294;2023-04-24T05:52:44;5.10;;;3.63;;
11970;SDS011;6045;42.682;23.294;2023-04-24T05:55:12;4.70;;;3.60;;
11970;SDS011;6045;42.682;23.294;2023-04-24T05:57:39;4.37;;;3.40;;
11970;SDS011;6045;42.682;23.294;2023-04-24T06:00:06;5.40;;;3.60;;
11970;SDS011;6045;42.682;23.294;2023-04-24T06:02:33;5.40;;;3.13;;
11970;SDS011;6045;42.682;23.294;2023-04-24T06:05:00;4.23;;;3.20;;
11970;SDS011;6045;42.682;23.294;2023-04-24T06:07:27;3.57;;;3.27;;
11970;SDS011;6045;42.682;23.294;2023-04-24T06:09:54;4.50;;;3.77;;
11970;SDS011;6045;42.682;23.294;2023-04-24T06:12:23;5.30;;;3.60;;
11970;SDS011;6045;42.682;23.294;2023-04-24T06:14:49;6.53;;;3.63;;
11970;SDS011;6045;42.682;23.294;2023-04-24T06:17:16;4.37;;;3.20;;
11970;SDS011;6045;42.682;23.294;2023-04-24T06:19:43;4.43;;;3.47;;
11970;SDS011;6045;42.682;23.294;2023-04-24T06:22:10;5.80;;;3.80;;
11970;SDS011;6045;42.682;23.294;2023-04-24T06:24:36;6.20;;;3.53;;
11970;SDS011;6045;42.682;23.294;2023-04-24T06:27:03;3.40;;;3.10;;
11970;SDS011;6045;42.682;23.294;2023-04-24T06:29:31;4.27;;;3.27;;
11970;SDS011;6045;42.682;23.294;2023-04-24T06:31:59;4.30;;;3.63;;
11970;SDS011;6045;42.682;23.294;2023-04-24T06:34:25;7.77;;;4.20;;
11970;SDS011;6045;42.682;23.294;2023-04-24T06:36:52;5.70;;;4.47;;
11970;SDS011;6045;42.682;23.294;2023-04-24T06:39:20;5.30;;;4.40;;
11970;SDS011;6045;42.682;23.294;2023-04-24T06:41:47;5.60;;;3.80;;
11970;SDS011;6045;42.682;23.294;2023-04-24T06:44:13;8.10;;;4.38;;
11970;SDS011;6045;42.682;23.294;2023-04-24T06:46:42;7.63;;;4.47;;
11970;SDS011;6045;42.682;23.294;2023-04-24T06:49:09;5.65;;;4.13;;
11970;SDS011;6045;42.682;23.294;2023-04-24T06:51:35;22.48;;;12.60;;
11970;SDS011;6045;42.682;23.294;2023-04-24T06:54:02;14.68;;;8.30;;
11970;SDS011;6045;42.682;23.294;2023-04-24T06:56:29;14.40;;;9.50;;
11970;SDS011;6045;42.682;23.294;2023-04-24T06:58:55;5.07;;;4.32;;
11970;SDS011;6045;42.682;23.294;2023-04-24T07:01:22;8.38;;;4.93;;
11970;SDS011;6045;42.682;23.294;2023-04-24T07:03:51;5.47;;;4.22;;
11970;SDS011;6045;42.682;23.294;2023-04-24T07:06:18;6.03;;;3.72;;
11970;SDS011;6045;42.682;23.294;2023-04-24T07:08:47;6.60;;;4.13;;
11970;SDS011;6045;42.682;23.294;2023-04-24T07:11:14;5.30;;;3.75;;
11970;SDS011;6045;42.682;23.294;2023-04-24T07:13:41;4.68;;;3.22;;
11970;SDS011;6045;42.682;23.294;2023-04-24T07:16:08;6.45;;;4.25;;
11970;SDS011;6045;42.682;23.294;2023-04-24T07:18:35;6.75;;;5.18;;
11970;SDS011;6045;42.682;23.294;2023-04-24T07:21:03;5.50;;;3.80;;
11970;SDS011;6045;42.682;23.294;2023-04-24T07:23:31;6.35;;;4.15;;
11970;SDS011;6045;42.682;23.294;2023-04-24T07:25:58;5.63;;;3.90;;
11970;SDS011;6045;42.682;23.294;2023-04-24T07:28:25;4.85;;;4.20;;
11970;SDS011;6045;42.682;23.294;2023-04-24T07:30:51;6.28;;;4.03;;
11970;SDS011;6045;42.682;23.294;2023-04-24T07:33:19;5.68;;;3.78;;
11970;SDS011;6045;42.682;23.294;2023-04-24T07:35:45;3.92;;;3.42;;
11970;SDS011;6045;42.682;23.294;2023-04-24T07:38:14;4.03;;;3.63;;
11970;SDS011;6045;42.682;23.294;2023-04-24T07:40:40;5.28;;;3.80;;
11970;SDS011;6045;42.682;23.294;2023-04-24T07:43:07;4.95;;;3.95;;
11970;SDS011;6045;42.682;23.294;2023-04-24T07:45:34;6.10;;;4.07;;
11970;SDS011;6045;42.682;23.294;2023-04-24T07:48:02;4.57;;;3.90;;
11970;SDS011;6045;42.682;23.294;2023-04-24T07:50:29;6.03;;;4.30;;
11970;SDS011;6045;42.682;23.294;2023-04-24T07:52:56;4.45;;;3.60;;
11970;SDS011;6045;42.682;23.294;2023-04-24T07:55:24;6.72;;;3.53;;
11970;SDS011;6045;42.682;23.294;2023-04-24T07:57:51;4.32;;;3.42;;
11970;SDS011;6045;42.682;23.294;2023-04-24T08:00:18;6.72;;;3.78;;
11970;SDS011;6045;42.682;23.294;2023-04-24T08:02:45;5.28;;;4.03;;
11970;SDS011;6045;42.682;23.294;2023-04-24T08:05:11;4.30;;;3.10;;
11970;SDS011;6045;42.682;23.294;2023-04-24T08:07:38;4.85;;;3.45;;
11970;SDS011;6045;42.682;23.294;2023-04-24T08:10:09;5.75;;;3.42;;
11970;SDS011;6045;42.682;23.294;2023-04-24T08:12:38;4.25;;;3.47;;
11970;SDS011;6045;42.682;23.294;2023-04-24T08:15:05;3.63;;;3.22;;
11970;SDS011;6045;42.682;23.294;2023-04-24T08:17:33;4.45;;;3.72;;
11970;SDS011;6045;42.682;23.294;2023-04-24T08:20:00;4.78;;;3.70;;
11970;SDS011;6045;42.682;23.294;2023-04-24T08:22:27;4.90;;;3.70;;
11970;SDS011;6045;42.682;23.294;2023-04-24T08:24:54;4.72;;;3.40;;
11970;SDS011;6045;42.682;23.294;2023-04-24T08:27:22;4.10;;;3.65;;
11970;SDS011;6045;42.682;23.294;2023-04-24T08:29:50;5.50;;;3.65;;
11970;SDS011;6045;42.682;23.294;2023-04-24T08:32:17;4.47;;;3.75;;
11970;SDS011;6045;42.682;23.294;2023-04-24T08:34:43;3.60;;;3.30;;
11970;SDS011;6045;42.682;23.294;2023-04-24T08:37:10;4.45;;;4.00;;
11970;SDS011;6045;42.682;23.294;2023-04-24T08:39:37;4.82;;;3.55;;
11970;SDS011;6045;42.682;23.294;2023-04-24T08:42:04;3.58;;;3.28;;
11970;SDS011;6045;42.682;23.294;2023-04-24T08:44:33;4.13;;;3.05;;
11970;SDS011;6045;42.682;23.294;2023-04-24T08:47:02;4.35;;;3.15;;
11970;SDS011;6045;42.682;23.294;2023-04-24T08:49:29;4.60;;;4.20;;
11970;SDS011;6045;42.682;23.294;2023-04-24T08:51:57;4.60;;;3.72;;
11970;SDS011;6045;42.682;23.294;2023-04-24T08:54:24;6.13;;;3.67;;
11970;SDS011;6045;42.682;23.294;2023-04-24T08:56:52;4.32;;;3.60;;
11970;SDS011;6045;42.682;23.294;2023-04-24T08:59:24;5.32;;;4.03;;
11970;SDS011;6045;42.682;23.294;2023-04-24T09:01:51;4.30;;;3.20;;
11970;SDS011;6045;42.682;23.294;2023-04-24T09:04:19;3.88;;;3.22;;
11970;SDS011;6045;42.682;23.294;2023-04-24T09:06:49;3.42;;;2.90;;
11970;SDS011;6045;42.682;23.294;2023-04-24T09:09:16;5.38;;;3.53;;
11970;SDS011;6045;42.682;23.294;2023-04-24T09:11:44;3.45;;;3.15;;
11970;SDS011;6045;42.682;23.294;2023-04-24T09:14:11;5.32;;;3.70;;
11970;SDS011;6045;42.682;23.294;2023-04-24T09:16:37;3.33;;;2.95;;
11970;SDS011;6045;42.682;23.294;2023-04-24T09:19:04;5.10;;;3.30;;
11970;SDS011;6045;42.682;23.294;2023-04-24T09:21:32;4.85;;;3.05;;
11970;SDS011;6045;42.682;23.294;2023-04-24T09:24:00;4.57;;;3.00;;
11970;SDS011;6045;42.682;23.294;2023-04-24T09:26:29;5.80;;;3.55;;
11970;SDS011;6045;42.682;23.294;2023-04-24T09:28:57;3.67;;;3.38;;
11970;SDS011;6045;42.682;23.294;2023-04-24T09:31:26;5.13;;;2.90;;
11970;SDS011;6045;42.682;23.294;2023-04-24T09:33:54;3.90;;;3.33;;
11970;SDS011;6045;42.682;23.294;2023-04-24T09:36:28;5.15;;;2.88;;
11970;SDS011;6045;42.682;23.294;2023-04-24T09:38:59;3.72;;;3.30;;
11970;SDS011;6045;42.682;23.294;2023-04-24T09:41:27;3.88;;;2.95;;
11970;SDS011;6045;42.682;23.294;2023-04-24T09:44:01;3.63;;;3.08;;
11970;SDS011;6045;42.682;23.294;2023-04-24T09:46:37;3.13;;;2.83;;
11970;SDS011;6045;42.682;23.294;2023-04-24T09:49:07;3.00;;;2.78;;
11970;SDS011;6045;42.682;23.294;2023-04-24T09:51:35;3.67;;;3.00;;
11970;SDS011;6045;42.682;23.294;2023-04-24T09:54:07;3.38;;;2.60;;
11970;SDS011;6045;42.682;23.294;2023-04-24T09:56:41;4.30;;;3.08;;
11970;SDS011;6045;42.682;23.294;2023-04-24T09:59:09;3.45;;;2.80;;
11970;SDS011;6045;42.682;23.294;2023-04-24T10:01:36;5.05;;;2.97;;
11970;SDS011;6045;42.682;23.294;2023-04-24T10:04:07;4.75;;;2.90;;
11970;SDS011;6045;42.682;23.294;2023-04-24T10:06:41;3.80;;;3.10;;
11970;SDS011;6045;42.682;23.294;2023-04-24T10:09:10;3.13;;;2.83;;
11970;SDS011;6045;42.682;23.294;2023-04-24T10:11:39;2.55;;;2.35;;
11970;SDS011;6045;42.682;23.294;2023-04-24T10:14:09;3.38;;;2.75;;
11970;SDS011;6045;42.682;23.294;2023-04-24T10:16:36;4.50;;;2.97;;
11970;SDS011;6045;42.682;23.294;2023-04-24T10:19:04;2.55;;;2.15;;
11970;SDS011;6045;42.682;23.294;2023-04-24T10:21:31;2.67;;;2.25;;
11970;SDS011;6045;42.682;23.294;2023-04-24T10:23:59;4.53;;;2.67;;
11970;SDS011;6045;42.682;23.294;2023-04-24T10:26:30;2.80;;;2.40;;
11970;SDS011;6045;42.682;23.294;2023-04-24T10:28:57;3.35;;;2.70;;
11970;SDS011;6045;42.682;23.294;2023-04-24T10:31:25;2.50;;;2.30;;
11970;SDS011;6045;42.682;23.294;2023-04-24T10:33:53;2.92;;;2.08;;
11970;SDS011;6045;42.682;23.294;2023-04-24T10:36:23;2.38;;;2.17;;
11970;SDS011;6045;42.682;23.294;2023-04-24T10:38:51;3.17;;;2.38;;
11970;SDS011;6045;42.682;23.294;2023-04-24T10:41:19;3.83;;;2.47;;
11970;SDS011;6045;42.682;23.294;2023-04-24T10:43:49;3.15;;;2.28;;
11970;SDS011;6045;42.682;23.294;2023-04-24T10:46:30;3.25;;;2.03;;
11970;SDS011;6045;42.682;23.294;2023-04-24T10:48:57;2.33;;;2.00;;
11970;SDS011;6045;42.682;23.294;2023-04-24T10:51:25;2.83;;;1.98;;
11970;SDS011;6045;42.682;23.294;2023-04-24T10:54:21;3.15;;;2.03;;
11970;SDS011;6045;42.682;23.294;2023-04-24T10:56:49;2.33;;;2.13;;
11970;SDS011;6045;42.682;23.294;2023-04-24T10:59:25;4.75;;;2.65;;
11970;SDS011;6045;42.682;23.294;2023-04-24T11:01:53;4.07;;;2.40;;
11970;SDS011;6045;42.682;23.294;2023-04-24T11:04:28;4.15;;;2.40;;
11970;SDS011;6045;42.682;23.294;2023-04-24T11:06:56;2.58;;;2.20;;
11970;SDS011;6045;42.682;23.294;2023-04-24T11:09:26;4.07;;;2.42;;
11970;SDS011;6045;42.682;23.294;2023-04-24T11:12:02;3.78;;;2.28;;
11970;SDS011;6045;42.682;23.294;2023-04-24T11:17:36;2.85;;;2.00;;
11970;SDS011;6045;42.682;23.294;2023-04-24T11:20:06;3.20;;;2.45;;
11970;SDS011;6045;42.682;23.294;2023-04-24T11:22:36;3.85;;;2.42;;
11970;SDS011;6045;42.682;23.294;2023-04-24T11:25:05;2.22;;;1.92;;
11970;SDS011;6045;42.682;23.294;2023-04-24T11:27:38;3.80;;;2.30;;
11970;SDS011;6045;42.682;23.294;2023-04-24T11:30:08;3.97;;;2.63;;
11970;SDS011;6045;42.682;23.294;2023-04-24T11:32:36;3.60;;;2.65;;
11970;SDS011;6045;42.682;23.294;2023-04-24T11:35:04;2.97;;;2.53;;
11970;SDS011;6045;42.682;23.294;2023-04-24T11:37:34;4.15;;;2.92;;
11970;SDS011;6045;42.682;23.294;2023-04-24T11:40:02;4.88;;;3.22;;
11970;SDS011;6045;42.682;23.294;2023-04-24T11:42:33;2.83;;;2.58;;
11970;SDS011;6045;42.682;23.294;2023-04-24T11:45:00;3.00;;;2.40;;
11970;SDS011;6045;42.682;23.294;2023-04-24T11:47:30;2.78;;;2.10;;
11970;SDS011;6045;42.682;23.294;2023-04-24T11:49:59;3.05;;;2.20;;
11970;SDS011;6045;42.682;23.294;2023-04-24T11:52:26;2.15;;;1.80;;
11970;SDS011;6045;42.682;23.294;2023-04-24T11:54:53;2.22;;;1.98;;
11970;SDS011;6045;42.682;23.294;2023-04-24T11:57:20;2.30;;;2.03;;
11970;SDS011;6045;42.682;23.294;2023-04-24T11:59:47;2.88;;;2.40;;
11970;SDS011;6045;42.682;23.294;2023-04-24T12:02:21;2.67;;;2.30;;
11970;SDS011;6045;42.682;23.294;2023-04-24T12:04:50;3.30;;;2.22;;
11970;SDS011;6045;42.682;23.294;2023-04-24T12:07:17;1.73;;;1.63;;
11970;SDS011;6045;42.682;23.294;2023-04-24T12:09:44;3.10;;;2.38;;
11970;SDS011;6045;42.682;23.294;2023-04-24T12:12:12;4.25;;;2.70;;
11970;SDS011;6045;42.682;23.294;2023-04-24T12:17:25;1.80;;;1.65;;
11970;SDS011;6045;42.682;23.294;2023-04-24T12:19:56;2.40;;;1.95;;
11970;SDS011;6045;42.682;23.294;2023-04-24T12:22:24;2.58;;;2.38;;
11970;SDS011;6045;42.682;23.294;2023-04-24T12:24:57;3.03;;;2.40;;
11970;SDS011;6045;42.682;23.294;2023-04-24T12:27:25;2.47;;;2.17;;
11970;SDS011;6045;42.682;23.294;2023-04-24T12:29:53;3.33;;;2.50;;
11970;SDS011;6045;42.682;23.294;2023-04-24T12:32:21;3.08;;;2.78;;
11970;SDS011;6045;42.682;23.294;2023-04-24T12:34:49;2.70;;;2.50;;
11970;SDS011;6045;42.682;23.294;2023-04-24T12:37:17;2.28;;;1.92;;
11970;SDS011;6045;42.682;23.294;2023-04-24T12:39:57;2.20;;;2.00;;
11970;SDS011;6045;42.682;23.294;2023-04-24T12:42:26;3.05;;;2.75;;
11970;SDS011;6045;42.682;23.294;2023-04-24T12:44:56;1.83;;;1.70;;
11970;SDS011;6045;42.682;23.294;2023-04-24T12:47:24;3.50;;;1.95;;
11970;SDS011;6045;42.682;23.294;2023-04-24T12:49:51;3.05;;;2.00;;
11970;SDS011;6045;42.682;23.294;2023-04-24T12:52:19;2.45;;;2.25;;
11970;SDS011;6045;42.682;23.294;2023-04-24T12:54:46;2.70;;;2.40;;
11970;SDS011;6045;42.682;23.294;2023-04-24T12:57:13;4.90;;;2.33;;
11970;SDS011;6045;42.682;23.294;2023-04-24T12:59:40;2.60;;;2.17;;
11970;SDS011;6045;42.682;23.294;2023-04-24T13:02:07;2.85;;;2.20;;
11970;SDS011;6045;42.682;23.294;2023-04-24T13:04:35;2.70;;;2.50;;
11970;SDS011;6045;42.682;23.294;2023-04-24T13:07:02;2.22;;;1.90;;
11970;SDS011;6045;42.682;23.294;2023-04-24T13:09:30;2.33;;;2.10;;
11970;SDS011;6045;42.682;23.294;2023-04-24T13:11:59;2.83;;;2.40;;
11970;SDS011;6045;42.682;23.294;2023-04-24T13:14:26;2.63;;;2.30;;
11970;SDS011;6045;42.682;23.294;2023-04-24T13:16:53;2.80;;;2.20;;
11970;SDS011;6045;42.682;23.294;2023-04-24T13:19:23;2.22;;;2.03;;
11970;SDS011;6045;42.682;23.294;2023-04-24T13:21:50;3.50;;;2.00;;
11970;SDS011;6045;42.682;23.294;2023-04-24T13:24:17;4.13;;;3.15;;
11970;SDS011;6045;42.682;23.294;2023-04-24T13:26:46;2.38;;;2.17;;
11970;SDS011;6045;42.682;23.294;2023-04-24T13:29:13;2.17;;;2.00;;
11970;SDS011;6045;42.682;23.294;2023-04-24T13:31:40;3.63;;;2.05;;
11970;SDS011;6045;42.682;23.294;2023-04-24T13:34:06;2.45;;;2.17;;
11970;SDS011;6045;42.682;23.294;2023-04-24T13:36:33;2.80;;;2.10;;
11970;SDS011;6045;42.682;23.294;2023-04-24T13:39:00;2.28;;;2.08;;
11970;SDS011;6045;42.682;23.294;2023-04-24T13:41:28;3.08;;;2.25;;
11970;SDS011;6045;42.682;23.294;2023-04-24T13:43:56;2.67;;;2.28;;
11970;SDS011;6045;42.682;23.294;2023-04-24T13:46:23;2.53;;;2.33;;
11970;SDS011;6045;42.682;23.294;2023-04-24T13:48:50;2.75;;;2.22;;
11970;SDS011;6045;42.682;23.294;2023-04-24T13:51:17;2.10;;;1.80;;
11970;SDS011;6045;42.682;23.294;2023-04-24T13:53:44;2.63;;;2.42;;
11970;SDS011;6045;42.682;23.294;2023-04-24T13:56:11;3.70;;;1.80;;
11970;SDS011;6045;42.682;23.294;2023-04-24T13:58:42;2.20;;;1.67;;
11970;SDS011;6045;42.682;23.294;2023-04-24T14:01:10;2.83;;;2.10;;
11970;SDS011;6045;42.682;23.294;2023-04-24T14:03:38;2.38;;;2.00;;
11970;SDS011;6045;42.682;23.294;2023-04-24T14:06:05;3.15;;;2.05;;
11970;SDS011;6045;42.682;23.294;2023-04-24T14:08:32;2.03;;;1.90;;
11970;SDS011;6045;42.682;23.294;2023-04-24T14:10:59;3.20;;;1.85;;
11970;SDS011;6045;42.682;23.294;2023-04-24T14:13:26;3.00;;;2.22;;
11970;SDS011;6045;42.682;23.294;2023-04-24T14:15:53;2.45;;;2.25;;
11970;SDS011;6045;42.682;23.294;2023-04-24T14:18:21;4.10;;;2.03;;
11970;SDS011;6045;42.682;23.294;2023-04-24T14:20:48;2.25;;;2.05;;
11970;SDS011;6045;42.682;23.294;2023-04-24T14:23:15;2.00;;;1.77;;
11970;SDS011;6045;42.682;23.294;2023-04-24T14:25:44;2.83;;;1.92;;
11970;SDS011;6045;42.682;23.294;2023-04-24T14:28:11;2.55;;;2.35;;
11970;SDS011;6045;42.682;23.294;2023-04-24T14:30:37;1.80;;;1.70;;
11970;SDS011;6045;42.682;23.294;2023-04-24T14:33:05;4.40;;;2.35;;
11970;SDS011;6045;42.682;23.294;2023-04-24T14:35:33;3.00;;;2.13;;
11970;SDS011;6045;42.682;23.294;2023-04-24T14:38:02;2.08;;;1.80;;
11970;SDS011;6045;42.682;23.294;2023-04-24T14:40:29;2.60;;;1.92;;
11970;SDS011;6045;42.682;23.294;2023-04-24T14:42:56;3.03;;;2.55;;
11970;SDS011;6045;42.682;23.294;2023-04-24T14:45:26;2.63;;;2.40;;
11970;SDS011;6045;42.682;23.294;2023-04-24T14:47:55;2.97;;;1.98;;
11970;SDS011;6045;42.682;23.294;2023-04-24T14:50:22;3.08;;;2.33;;
11970;SDS011;6045;42.682;23.294;2023-04-24T14:52:54;2.78;;;1.83;;
11970;SDS011;6045;42.682;23.294;2023-04-24T14:55:22;3.13;;;2.05;;
11970;SDS011;6045;42.682;23.294;2023-04-24T14:57:49;2.65;;;2.40;;